Time;durP1;ratioP1;P1;durP2;ratioP2;P2;SDS_P1;SDS_P2;PMS_P1;PMS_P2;Temp;Humidity;BMP_temperature;BMP_pressure;BME280_temperature;BME280_humidity;BME280_pressure;Samples;Min_cycle;Max_cycle;Signal;HPM_P1;HPM_P2
2023/08/10 00:00:17;;;;;;;5.33;2.10;;;14.10;99.90;;;15.18;100.00;98539.38;5016850;28;20722;-87
2023/08/10 00:02:47;;;;;;;3.43;2.00;;;14.10;99.90;;;15.17;100.00;98548.28;5019118;28;20517;-87
2023/08/10 00:05:17;;;;;;;3.73;2.00;;;14.10;99.90;;;15.20;100.00;98545.25;5017485;28;20923;-85
2023/08/10 00:07:48;;;;;;;3.93;1.83;;;14.10;99.90;;;15.25;100.00;98545.44;5020469;28;20502;-85
2023/08/10 00:10:19;;;;;;;2.87;1.90;;;14.20;99.90;;;15.19;100.00;98546.28;5021345;28;20944;-85
2023/08/10 00:12:49;;;;;;;3.13;2.00;;;14.00;99.90;;;15.04;100.00;98543.03;5020353;28;20967;-84
2023/08/10 00:15:19;;;;;;;14.43;2.20;;;13.70;99.90;;;15.01;100.00;98538.97;5022535;28;20497;-87
2023/08/10 00:17:50;;;;;;;2.57;2.10;;;13.90;99.90;;;15.02;100.00;98539.78;5021190;28;20474;-86
2023/08/10 00:20:20;;;;;;;2.67;2.13;;;13.90;99.90;;;14.99;100.00;98542.84;5023392;28;20826;-85
2023/08/10 00:22:52;;;;;;;2.73;1.90;;;13.80;99.90;;;14.98;100.00;98539.38;5029729;28;20465;-85
2023/08/10 00:25:24;;;;;;;3.93;2.03;;;13.90;99.90;;;14.94;100.00;98547.88;5021491;28;20473;-86
2023/08/10 00:27:57;;;;;;;4.47;1.90;;;13.80;99.90;;;14.90;100.00;98546.66;5023117;28;20464;-86
2023/08/10 00:30:44;;;;;;;9.67;2.20;;;13.90;99.90;;;14.91;100.00;98553.56;5022273;28;20481;-86
2023/08/10 00:33:14;;;;;;;5.90;1.60;;;13.90;99.90;;;14.91;100.00;98553.56;5023674;28;20520;-86
2023/08/10 00:36:06;;;;;;;13.33;2.30;;;13.80;99.90;;;14.91;100.00;98545.66;5026184;28;20492;-87
2023/08/10 00:38:38;;;;;;;10.07;2.30;;;13.70;99.90;;;14.82;100.00;98538.97;5024817;28;20461;-86
2023/08/10 00:41:09;;;;;;;1.80;1.50;;;13.90;99.90;;;14.68;100.00;98538.16;5025218;28;20462;-86
2023/08/10 00:43:40;;;;;;;3.30;2.00;;;13.80;99.90;;;14.70;100.00;98545.84;5025219;28;20458;-86
2023/08/10 00:46:12;;;;;;;8.83;2.20;;;13.80;99.90;;;14.74;100.00;98541.81;5022989;28;20466;-85
2023/08/10 00:48:42;;;;;;;5.23;1.90;;;13.70;99.90;;;14.70;100.00;98546.66;5020133;28;21211;-86
2023/08/10 00:51:11;;;;;;;6.73;1.90;;;13.70;99.90;;;14.74;100.00;98547.06;5022927;28;20847;-85
2023/08/10 00:53:42;;;;;;;2.17;1.93;;;13.60;99.90;;;14.70;100.00;98546.66;5023374;28;20466;-86
2023/08/10 00:56:14;;;;;;;2.93;2.00;;;13.60;99.90;;;14.70;100.00;98546.66;5024014;28;20501;-87
2023/08/10 00:58:43;;;;;;;4.63;2.03;;;13.60;99.90;;;14.64;100.00;98546.66;5021583;28;21009;-86
2023/08/10 01:01:12;;;;;;;4.10;2.20;;;13.50;99.90;;;14.64;100.00;98541.38;5021856;28;20466;-84
2023/08/10 01:03:42;;;;;;;2.10;1.83;;;13.50;99.90;;;14.57;100.00;98551.91;5023515;28;20484;-85
2023/08/10 01:06:26;;;;;;;5.30;2.20;;;13.60;99.90;;;14.49;100.00;98552.09;5022810;28;20481;-87
2023/08/10 01:09:10;;;;;;;2.87;2.10;;;13.60;99.90;;;14.47;100.00;98551.50;5023109;28;20470;-86
2023/08/10 01:11:50;;;;;;;5.23;2.10;;;13.70;99.90;;;14.44;100.00;98547.41;5022312;28;20482;-85
2023/08/10 01:14:33;;;;;;;3.47;2.20;;;13.70;99.90;;;14.52;100.00;98557.75;5023101;28;20858;-85
2023/08/10 01:17:13;;;;;;;4.37;1.87;;;13.50;99.90;;;14.45;100.00;98554.31;5022285;28;20517;-86
2023/08/10 01:19:44;;;;;;;2.33;2.13;;;13.50;99.90;;;14.48;100.00;98555.72;5022673;28;20462;-87
2023/08/10 01:22:23;;;;;;;7.50;2.13;;;13.40;99.90;;;14.47;100.00;98557.53;5023495;28;20494;-86
2023/08/10 01:25:02;;;;;;;4.10;2.10;;;13.40;99.90;;;14.48;100.00;98559.16;5023916;28;20493;-86
2023/08/10 01:27:32;;;;;;;9.33;3.17;;;13.40;99.90;;;14.45;100.00;98559.56;5021905;28;20469;-85
2023/08/10 01:30:07;;;;;;;4.40;2.03;;;13.30;99.90;;;14.34;100.00;98568.03;5026392;28;20556;-85
2023/08/10 01:32:36;;;;;;;11.07;2.00;;;13.40;99.90;;;14.35;100.00;98553.88;5021446;28;20531;-86
2023/08/10 01:35:10;;;;;;;2.47;1.70;;;13.30;99.90;;;14.38;100.00;98565.81;5022754;28;20554;-86
2023/08/10 01:37:41;;;;;;;4.33;2.30;;;13.20;99.90;;;14.35;100.00;98564.41;5023159;28;20577;-85
2023/08/10 01:40:15;;;;;;;2.83;2.13;;;13.30;99.90;;;14.36;100.00;98565.22;5022651;28;20467;-86
2023/08/10 01:42:46;;;;;;;2.70;1.97;;;13.30;99.90;;;14.34;100.00;98561.94;5021554;28;20905;-86
2023/08/10 01:45:17;;;;;;;4.77;2.77;;;13.30;99.90;;;14.32;100.00;98563.94;5023729;28;20818;-87
2023/08/10 01:47:55;;;;;;;3.53;2.50;;;13.20;99.90;;;14.29;100.00;98572.25;5023252;28;20478;-87
2023/08/10 01:50:30;;;;;;;3.43;2.00;;;13.20;99.90;;;14.29;100.00;98575.69;5028667;28;21019;-86
2023/08/10 01:53:08;;;;;;;5.07;1.80;;;13.20;99.90;;;14.26;100.00;98572.63;5021935;28;20541;-86
2023/08/10 01:55:39;;;;;;;9.93;1.80;;;13.30;99.90;;;14.19;100.00;98574.44;5024711;28;20531;-86
2023/08/10 01:58:10;;;;;;;3.27;2.40;;;13.30;99.90;;;14.18;100.00;98578.06;5021619;28;21055;-86
2023/08/10 02:00:40;;;;;;;1.97;1.60;;;13.30;99.90;;;14.17;100.00;98582.50;5025364;28;20458;-86
2023/08/10 02:03:10;;;;;;;2.70;2.00;;;13.30;99.90;;;14.16;100.00;98575.63;5022123;28;20496;-84
2023/08/10 02:05:40;;;;;;;2.67;2.07;;;13.20;99.90;;;14.11;100.00;98583.31;5023840;28;20474;-86
2023/08/10 02:08:10;;;;;;;3.73;1.73;;;13.10;99.90;;;14.12;100.00;98577.03;5023877;28;20564;-87
2023/08/10 02:10:41;;;;;;;4.77;1.60;;;13.10;99.90;;;14.13;100.00;98581.28;5021982;28;20470;-87
2023/08/10 02:13:12;;;;;;;3.27;2.27;;;13.00;99.90;;;14.14;100.00;98582.91;5021983;28;20996;-85
2023/08/10 02:15:42;;;;;;;4.40;3.50;;;13.00;99.90;;;14.09;100.00;98591.38;5023988;28;20475;-86
2023/08/10 02:18:14;;;;;;;3.33;1.87;;;13.10;99.90;;;13.98;100.00;98585.88;5021919;28;20510;-85
2023/08/10 02:20:44;;;;;;;3.03;1.80;;;13.10;99.90;;;13.98;100.00;98588.50;5026891;28;20453;-88
2023/08/10 02:23:13;;;;;;;7.03;2.77;;;13.00;99.90;;;13.95;100.00;98584.44;5023424;28;21152;-86
2023/08/10 02:25:43;;;;;;;3.60;2.00;;;13.00;99.90;;;13.92;100.00;98584.81;5021622;28;20462;-86
2023/08/10 02:28:12;;;;;;;3.07;2.00;;;13.00;99.90;;;13.93;100.00;98585.63;5037349;28;20920;-86
2023/08/10 02:30:40;;;;;;;3.87;1.60;;;12.90;99.90;;;13.92;100.00;98574.31;5023220;28;21046;-85
2023/08/10 02:33:09;;;;;;;2.07;1.73;;;12.90;99.90;;;13.92;100.00;98578.75;5021566;28;20980;-86
2023/08/10 02:35:42;;;;;;;4.43;1.97;;;12.90;99.90;;;13.93;100.00;98570.69;5023462;28;20969;-86
2023/08/10 02:38:13;;;;;;;2.67;1.90;;;13.00;99.90;;;13.90;100.00;98567.63;5023774;28;20897;-86
2023/08/10 02:40:44;;;;;;;5.20;2.03;;;12.90;99.90;;;13.83;100.00;98575.47;5021516;28;20466;-87
2023/08/10 02:43:13;;;;;;;2.07;1.80;;;12.90;99.90;;;13.87;100.00;98568.03;5021857;28;20470;-86
2023/08/10 02:45:42;;;;;;;3.77;1.90;;;12.90;99.90;;;13.89;100.00;98564.19;5022416;28;20971;-87
2023/08/10 02:48:12;;;;;;;2.97;2.10;;;12.80;99.90;;;13.86;100.00;98566.38;5021169;28;20466;-86
2023/08/10 02:50:42;;;;;;;3.00;2.13;;;12.80;99.90;;;13.89;100.00;98573.88;5019372;28;20468;-87
2023/08/10 02:53:11;;;;;;;2.53;1.90;;;12.80;99.90;;;13.90;100.00;98570.25;5019949;28;20450;-86
2023/08/10 02:55:44;;;;;;;2.93;2.00;;;12.80;99.90;;;13.84;100.00;98573.66;5022944;28;20465;-87
2023/08/10 02:58:16;;;;;;;12.30;2.00;;;12.70;99.90;;;13.83;100.00;98575.47;5020554;28;21015;-85
2023/08/10 03:00:46;;;;;;;2.60;1.80;;;12.70;99.90;;;13.83;100.00;98575.47;5019488;28;20462;-86
2023/08/10 03:03:17;;;;;;;2.20;1.60;;;12.70;99.90;;;13.79;100.00;98569.00;5020459;28;20473;-87
2023/08/10 03:05:48;;;;;;;3.17;2.33;;;12.60;99.90;;;13.77;100.00;98572.81;5022822;28;20490;-87
2023/08/10 03:08:17;;;;;;;3.07;1.80;;;12.50;99.90;;;13.80;100.00;98577.69;5024514;28;20520;-85
2023/08/10 03:10:46;;;;;;;13.23;4.20;;;12.60;99.90;;;13.76;100.00;98573.81;5023479;28;20492;-85
2023/08/10 03:13:18;;;;;;;3.73;2.57;;;12.60;99.90;;;13.80;100.00;98575.06;5020881;28;20466;-87
2023/08/10 03:15:48;;;;;;;5.03;2.37;;;12.70;99.90;;;13.79;100.00;98573.44;5022919;28;20976;-86
2023/08/10 03:18:19;;;;;;;5.00;1.93;;;12.60;99.90;;;13.78;100.00;98569.97;5022428;28;21039;-89
2023/08/10 03:20:49;;;;;;;2.33;1.90;;;12.60;99.90;;;13.78;100.00;98567.34;5018151;28;20465;-86
2023/08/10 03:23:19;;;;;;;6.23;1.80;;;12.70;99.90;;;13.74;100.00;98560.88;5020096;28;20937;-88
2023/08/10 03:25:48;;;;;;;5.73;1.90;;;12.60;99.90;;;13.73;100.00;98564.50;5023080;28;20831;-88
2023/08/10 03:28:19;;;;;;;2.83;1.83;;;12.60;99.90;;;13.71;100.00;98560.47;5022377;28;20489;-87
2023/08/10 03:30:49;;;;;;;4.60;1.93;;;12.60;99.90;;;13.66;100.00;98555.78;5023261;28;20465;-86
2023/08/10 03:33:18;;;;;;;3.37;1.63;;;12.50;99.90;;;13.66;100.00;98568.91;5021045;28;20463;-87
2023/08/10 03:35:48;;;;;;;3.73;2.10;;;12.50;99.90;;;13.66;100.00;98566.28;5020482;28;20964;-86
2023/08/10 03:38:19;;;;;;;7.30;2.03;;;12.50;99.90;;;13.66;100.00;98563.66;5035838;28;21004;-87
2023/08/10 03:40:48;;;;;;;1.93;1.70;;;12.50;99.90;;;13.61;100.00;98571.31;5021183;28;20856;-86
2023/08/10 03:43:19;;;;;;;2.00;1.77;;;12.40;99.90;;;13.57;100.00;98572.72;5024529;28;20470;-88
2023/08/10 03:45:48;;;;;;;4.90;1.87;;;12.40;99.90;;;13.59;100.00;98568.06;5024972;28;20461;-87
2023/08/10 03:48:19;;;;;;;2.80;1.97;;;12.40;99.90;;;13.56;100.00;98574.53;5024111;28;20466;-87
2023/08/10 03:50:50;;;;;;;3.77;1.90;;;12.30;99.90;;;13.46;100.00;98579.31;5024453;28;20980;-85
2023/08/10 03:53:21;;;;;;;6.30;2.70;;;12.40;99.90;;;13.45;100.00;98575.06;5021515;28;20455;-88
2023/08/10 03:55:52;;;;;;;3.00;1.93;;;12.40;99.90;;;13.42;100.00;98585.94;5022344;28;20473;-86
2023/08/10 03:58:24;;;;;;;10.00;1.90;;;12.40;99.90;;;13.39;100.00;98578.47;5021614;28;20497;-88
2023/08/10 04:00:54;;;;;;;2.60;1.63;;;12.30;99.90;;;13.34;100.00;98585.28;5021987;28;20584;-85
2023/08/10 04:03:25;;;;;;;3.23;1.67;;;12.30;99.90;;;13.33;100.00;98588.94;5023821;28;20988;-88
2023/08/10 04:05:55;;;;;;;7.83;1.70;;;12.30;99.90;;;13.35;100.00;98595.59;5022097;28;20466;-85
2023/08/10 04:08:25;;;;;;;4.50;2.30;;;12.30;99.90;;;13.37;100.00;98596.22;5025672;28;20971;-89
2023/08/10 04:10:55;;;;;;;3.27;2.07;;;12.40;99.90;;;13.31;100.00;98602.22;5023691;28;20462;-87
2023/08/10 04:13:27;;;;;;;11.33;2.00;;;12.30;99.90;;;13.29;100.00;98598.19;5024198;28;20472;-86
2023/08/10 04:15:57;;;;;;;7.20;2.20;;;12.30;99.90;;;13.32;100.00;98600.41;5023080;28;20846;-87
2023/08/10 04:18:27;;;;;;;7.93;2.23;;;12.20;99.90;;;13.30;100.00;98602.41;5025044;28;20500;-86
2023/08/10 04:20:57;;;;;;;1.93;1.73;;;12.20;99.90;;;13.28;100.00;98602.63;5000722;28;20960;-86
2023/08/10 04:23:27;;;;;;;6.13;1.90;;;12.10;99.90;;;13.27;100.00;98598.34;5023962;28;20459;-87
2023/08/10 04:25:57;;;;;;;2.53;1.60;;;12.20;99.90;;;13.27;100.00;98610.69;5025454;28;20458;-85
2023/08/10 04:28:30;;;;;;;3.50;2.40;;;12.20;99.90;;;13.26;100.00;98609.84;5026011;28;20501;-85
2023/08/10 04:30:59;;;;;;;12.03;1.97;;;12.20;99.90;;;13.29;100.00;98614.75;5026152;28;20879;-86
2023/08/10 04:33:29;;;;;;;3.80;2.20;;;12.20;99.90;;;13.27;100.00;98614.13;5024355;28;20511;-86
2023/08/10 04:36:02;;;;;;;5.80;1.90;;;12.10;99.90;;;13.25;100.00;98605.63;5023114;28;20474;-86
2023/08/10 04:38:33;;;;;;;2.17;1.70;;;12.10;99.90;;;13.20;100.00;98617.69;5020050;28;20505;-87
2023/08/10 04:41:04;;;;;;;2.50;1.90;;;12.20;99.90;;;13.23;100.00;98615.50;5024418;28;21014;-85
2023/08/10 04:43:35;;;;;;;3.17;1.90;;;12.20;99.90;;;13.21;100.00;98620.13;5026271;28;20454;-85
2023/08/10 04:46:06;;;;;;;4.00;1.80;;;12.10;99.90;;;13.08;100.00;98609.50;5023871;28;20466;-85
2023/08/10 04:48:37;;;;;;;13.63;2.10;;;12.10;99.90;;;13.06;100.00;98608.84;5026211;28;20458;-86
2023/08/10 04:51:07;;;;;;;5.13;2.20;;;12.00;99.90;;;13.04;100.00;98611.69;5027329;28;20469;-85
2023/08/10 04:53:37;;;;;;;6.00;2.30;;;12.00;99.90;;;13.06;100.00;98609.66;5024746;28;20541;-85
2023/08/10 04:56:08;;;;;;;4.17;1.83;;;12.00;99.90;;;13.05;100.00;98609.88;5023277;28;20949;-86
2023/08/10 04:58:39;;;;;;;11.80;2.40;;;12.00;99.90;;;13.09;100.00;98609.31;5023614;28;21034;-86
2023/08/10 05:01:13;;;;;;;2.83;1.60;;;12.00;99.90;;;13.09;100.00;98616.38;5025292;28;20469;-86
2023/08/10 05:03:43;;;;;;;2.83;1.70;;;12.00;99.90;;;13.12;100.00;98608.13;5025961;28;20466;-85
2023/08/10 05:06:14;;;;;;;16.63;1.97;;;12.00;99.90;;;13.12;100.00;98616.00;5022725;28;20466;-86
2023/08/10 05:08:45;;;;;;;3.77;2.17;;;12.10;99.90;;;13.13;100.00;98617.63;5025370;28;20507;-86
2023/08/10 05:11:14;;;;;;;3.00;1.90;;;12.00;99.90;;;13.12;100.00;98621.25;5025707;28;20537;-86
2023/08/10 05:13:46;;;;;;;2.70;2.07;;;12.10;99.90;;;13.04;100.00;98621.38;5023138;28;20477;-86
2023/08/10 05:16:16;;;;;;;3.00;2.20;;;12.10;99.90;;;13.09;100.00;98624.25;5024779;28;20529;-85
2023/08/10 05:18:45;;;;;;;3.37;2.30;;;12.20;99.90;;;13.15;100.00;98627.97;5026367;28;20516;-86
2023/08/10 05:21:15;;;;;;;4.70;2.43;;;12.10;99.90;;;13.17;100.00;98629.38;5024363;28;20466;-86
2023/08/10 05:23:46;;;;;;;3.67;2.57;;;12.10;99.90;;;13.21;100.00;98633.25;5023423;28;20980;-85
2023/08/10 05:26:17;;;;;;;4.53;1.93;;;12.20;99.90;;;13.26;100.00;98632.72;5023560;28;20902;-85
2023/08/10 05:28:49;;;;;;;6.73;2.07;;;12.20;99.90;;;13.28;100.00;98633.31;5023153;28;20954;-85
2023/08/10 05:31:19;;;;;;;2.43;2.03;;;12.20;99.90;;;13.32;100.00;98638.00;5023162;28;20508;-85
2023/08/10 05:33:49;;;;;;;9.77;2.60;;;12.30;99.90;;;13.36;100.00;98633.97;5022027;28;20469;-86
2023/08/10 05:36:19;;;;;;;5.23;1.83;;;12.30;99.90;;;13.38;100.00;98639.06;5023964;28;21203;-84
2023/08/10 05:38:50;;;;;;;2.83;2.10;;;12.40;99.90;;;13.43;100.00;98634.84;5023049;28;20832;-85
2023/08/10 05:41:21;;;;;;;6.33;2.13;;;12.40;99.90;;;13.43;100.00;98626.97;5021995;28;20462;-85
2023/08/10 05:43:52;;;;;;;5.70;2.47;;;12.50;99.90;;;13.47;100.00;98635.28;5024597;28;20906;-85
2023/08/10 05:46:22;;;;;;;3.03;2.50;;;12.50;99.90;;;13.46;100.00;98629.25;5024022;28;20964;-85
2023/08/10 05:48:51;;;;;;;3.40;2.17;;;12.50;99.90;;;13.48;100.00;98634.28;5023390;28;20610;-86
2023/08/10 05:51:21;;;;;;;4.53;1.63;;;12.50;99.90;;;13.45;100.00;98630.22;5025513;28;21144;-86
2023/08/10 05:54:10;;;;;;;6.30;2.33;;;12.40;99.90;;;13.46;100.00;98631.88;5025811;28;20857;-85
2023/08/10 05:56:41;;;;;;;2.23;1.70;;;12.40;99.90;;;13.46;100.00;98631.88;5025739;28;20462;-86
2023/08/10 05:59:12;;;;;;;3.43;2.03;;;12.40;99.90;;;13.52;100.00;98644.22;5021618;28;20490;-85
2023/08/10 06:01:45;;;;;;;2.43;1.80;;;12.50;99.90;;;13.54;100.00;98644.03;5022968;28;20458;-85
2023/08/10 06:04:15;;;;;;;2.37;1.70;;;12.50;99.90;;;13.57;100.00;98636.56;5021942;28;20459;-85
2023/08/10 06:06:46;;;;;;;3.60;2.03;;;12.60;99.90;;;13.63;100.00;98634.19;5024106;28;20458;-86
2023/08/10 06:09:16;;;;;;;2.43;2.23;;;12.60;99.90;;;13.69;100.00;98636.88;5022662;28;20442;-86
2023/08/10 06:11:45;;;;;;;22.63;3.23;;;12.70;99.90;;;13.75;100.00;98630.00;5020187;28;20459;-85
2023/08/10 06:14:19;;;;;;;2.23;2.03;;;12.80;99.90;;;13.79;100.00;98641.78;5023041;28;20540;-86
2023/08/10 06:16:47;;;;;;;4.07;2.17;;;12.80;99.90;;;13.83;100.00;98643.03;5023108;28;21081;-86
2023/08/10 06:19:16;;;;;;;2.90;2.10;;;12.90;99.90;;;13.88;100.00;98651.16;5022722;28;20501;-86
2023/08/10 06:21:46;;;;;;;4.83;2.40;;;12.90;99.90;;;13.90;100.00;98654.38;5022022;28;20978;-85
2023/08/10 06:24:16;;;;;;;2.33;2.00;;;12.90;99.90;;;13.94;100.00;98650.38;5022785;28;20485;-86
2023/08/10 06:26:45;;;;;;;5.37;2.53;;;13.00;99.90;;;13.96;100.00;98648.34;5022894;28;21773;-86
2023/08/10 06:29:21;;;;;;;3.17;2.20;;;13.00;99.90;;;14.00;100.00;98649.59;5024923;28;20493;-85
2023/08/10 06:31:49;;;;;;;11.53;2.60;;;13.00;99.90;;;14.04;100.00;98646.41;5023268;28;20473;-86
2023/08/10 06:34:18;;;;;;;5.90;2.30;;;13.10;99.90;;;14.10;100.00;98645.59;5023819;28;20467;-85
2023/08/10 06:37:04;;;;;;;14.50;2.20;;;13.10;99.90;;;14.13;100.00;98647.03;5024622;28;20494;-85
2023/08/10 06:39:34;;;;;;;3.47;2.20;;;13.20;99.90;;;14.16;100.00;98643.22;5023497;28;20545;-85
2023/08/10 06:42:06;;;;;;;5.33;1.57;;;13.20;99.90;;;14.16;100.00;98644.00;5022765;28;20557;-86
2023/08/10 06:44:38;;;;;;;3.70;2.30;;;13.20;99.90;;;14.23;100.00;98644.06;5023996;28;20449;-86
2023/08/10 06:47:08;;;;;;;3.90;2.50;;;13.30;99.90;;;14.27;100.00;98643.47;5025205;28;20470;-86
2023/08/10 06:49:38;;;;;;;4.77;2.47;;;13.40;99.90;;;14.34;100.00;98639.06;5038641;28;20553;-87
2023/08/10 06:52:09;;;;;;;10.63;2.47;;;13.40;99.90;;;14.41;100.00;98645.16;5024685;28;20525;-85
2023/08/10 06:54:38;;;;;;;4.03;2.20;;;13.50;99.90;;;14.47;100.00;98643.59;5023968;28;20541;-85
2023/08/10 06:57:07;;;;;;;3.70;2.40;;;13.60;99.90;;;14.52;100.00;98641.16;5026018;28;20474;-84
2023/08/10 06:59:38;;;;;;;2.07;1.73;;;13.60;99.90;;;14.57;100.00;98644.03;5021803;28;20539;-86
2023/08/10 07:02:11;;;;;;;2.50;2.00;;;13.60;99.90;;;14.63;100.00;98639.78;5023421;28;20475;-86
2023/08/10 07:04:43;;;;;;;5.57;2.20;;;13.70;99.90;;;14.67;100.00;98641.00;5021680;28;20972;-85
2023/08/10 07:07:14;;;;;;;2.70;2.00;;;13.70;99.90;;;14.73;100.00;98650.75;5023351;28;20466;-85
2023/08/10 07:09:44;;;;;;;2.53;2.33;;;13.80;99.90;;;14.79;100.00;98649.94;5022047;28;20540;-85
2023/08/10 07:12:13;;;;;;;2.70;2.30;;;13.90;99.90;;;14.84;100.00;98643.09;5022585;28;20468;-85
2023/08/10 07:14:45;;;;;;;2.03;1.83;;;13.90;99.90;;;14.89;100.00;98639.88;5021439;28;20470;-85
2023/08/10 07:17:15;;;;;;;2.77;1.93;;;14.00;99.90;;;14.94;100.00;98638.25;5023002;28;20469;-86
2023/08/10 07:19:46;;;;;;;2.50;2.30;;;14.10;99.90;;;15.02;100.00;98647.78;5022640;28;20490;-85
2023/08/10 07:22:16;;;;;;;2.70;2.10;;;14.20;99.90;;;15.11;100.00;98649.22;5020590;28;20461;-85
2023/08/10 07:24:46;;;;;;;14.53;2.43;;;14.30;99.90;;;15.18;100.00;98636.84;5021312;28;20462;-85
2023/08/10 07:27:17;;;;;;;10.00;2.53;;;14.30;99.90;;;15.26;100.00;98636.66;5020180;28;20473;-85
2023/08/10 07:29:52;;;;;;;7.33;2.53;;;14.40;99.90;;;15.35;100.00;98630.16;5021477;28;20914;-85
2023/08/10 07:32:23;;;;;;;4.30;2.50;;;14.50;99.90;;;15.42;100.00;98625.72;5020963;28;20470;-85
2023/08/10 07:34:52;;;;;;;2.90;2.23;;;14.60;99.90;;;15.48;100.00;98622.28;5021834;28;20453;-85
2023/08/10 07:37:23;;;;;;;7.33;2.20;;;14.70;99.90;;;15.56;100.00;98624.72;5021539;28;20455;-85
2023/08/10 07:39:53;;;;;;;2.90;1.97;;;14.80;99.90;;;15.63;100.00;98622.06;5022225;28;20955;-86
2023/08/10 07:42:23;;;;;;;3.53;1.80;;;14.80;99.90;;;15.70;100.00;98622.06;5023002;28;20472;-87
2023/08/10 07:44:56;;;;;;;5.07;2.77;;;14.90;99.90;;;15.76;100.00;98623.91;5021255;28;20501;-85
2023/08/10 07:47:25;;;;;;;9.80;2.10;;;15.00;99.90;;;15.81;100.00;98624.06;5021515;28;20979;-85
2023/08/10 07:49:56;;;;;;;9.83;2.43;;;15.10;99.90;;;15.86;100.00;98622.44;5022997;28;20525;-85
2023/08/10 07:52:25;;;;;;;4.30;2.20;;;15.10;99.90;;;15.90;100.00;98610.47;5021254;28;20465;-85
2023/08/10 07:54:55;;;;;;;4.20;1.73;;;15.20;99.90;;;15.94;100.00;98618.75;5022886;28;20462;-85
2023/08/10 07:57:25;;;;;;;5.90;2.60;;;15.20;99.90;;;15.99;100.00;98606.59;5022943;28;20458;-85
2023/08/10 08:00:00;;;;;;;10.80;2.40;;;15.20;99.90;;;16.04;100.00;98608.59;5021558;28;20498;-85
2023/08/10 08:02:31;;;;;;;5.60;3.20;;;15.30;99.90;;;16.09;100.00;98606.97;5021834;28;20469;-84
2023/08/10 08:05:01;;;;;;;2.83;2.20;;;15.30;99.90;;;16.14;100.00;98603.69;5022925;28;20508;-85
2023/08/10 08:07:31;;;;;;;5.53;2.27;;;15.40;99.90;;;16.17;100.00;98602.47;5021550;28;20454;-85
2023/08/10 08:10:02;;;;;;;9.57;2.87;;;15.40;99.90;;;16.23;100.00;98597.16;5021908;28;21043;-84
2023/08/10 08:12:33;;;;;;;4.50;2.10;;;15.50;99.90;;;16.27;100.00;98593.09;5021928;28;20496;-85
2023/08/10 08:15:07;;;;;;;4.37;2.37;;;15.50;99.90;;;16.33;100.00;98602.00;5020729;28;20466;-84
2023/08/10 08:19:04;;;;;;;7.80;2.10;;;15.60;99.90;;;16.41;100.00;98602.56;5022266;28;21006;-85
2023/08/10 08:21:34;;;;;;;2.37;1.90;;;15.70;99.90;;;16.48;100.00;98608.63;4939340;28;20584;-85
2023/08/10 08:24:05;;;;;;;2.90;1.80;;;15.70;99.90;;;16.53;100.00;98597.41;4941730;28;20519;-85
2023/08/10 08:26:36;;;;;;;4.13;2.53;;;15.80;99.90;;;16.58;100.00;98593.19;4998307;28;20469;-85
2023/08/10 08:29:06;;;;;;;3.70;2.00;;;15.80;99.90;;;16.65;100.00;98589.69;5023835;28;20579;-85
2023/08/10 08:31:37;;;;;;;6.03;2.47;;;15.90;99.90;;;16.70;100.00;98590.66;5024575;28;20458;-85
2023/08/10 08:34:07;;;;;;;3.07;2.00;;;15.90;99.90;;;16.74;100.00;98594.50;5024902;28;20461;-85
2023/08/10 08:36:36;;;;;;;4.60;2.33;;;16.00;99.90;;;16.80;100.00;98592.84;5024630;28;20815;-85
2023/08/10 08:39:07;;;;;;;5.53;2.27;;;16.10;99.90;;;16.84;100.00;98583.44;5024636;28;20463;-85
2023/08/10 08:41:39;;;;;;;3.60;2.40;;;16.10;99.90;;;16.89;100.00;98587.09;5024300;28;20612;-85
2023/08/10 08:44:10;;;;;;;2.40;1.80;;;16.20;99.90;;;16.95;100.00;98588.06;5025417;28;20466;-86
2023/08/10 08:46:44;;;;;;;3.30;2.17;;;16.30;99.90;;;17.01;100.00;98580.06;5024913;28;20458;-85
2023/08/10 08:49:15;;;;;;;5.53;1.80;;;16.30;99.90;;;17.06;100.00;98574.16;5024127;28;20459;-85
2023/08/10 08:51:46;;;;;;;4.63;1.80;;;16.40;99.90;;;17.13;100.00;98579.38;5024279;28;20465;-84
2023/08/10 08:54:16;;;;;;;3.40;2.00;;;16.40;99.90;;;17.16;100.00;98571.84;5026943;28;20477;-85
2023/08/10 08:56:45;;;;;;;3.03;2.07;;;16.50;99.90;;;17.22;100.00;98572.78;5026360;28;20474;-85
2023/08/10 08:59:19;;;;;;;4.07;2.07;;;16.50;99.90;;;17.27;100.00;98579.06;5025911;28;20931;-85
2023/08/10 09:01:50;;;;;;;3.10;1.77;;;16.50;99.90;;;17.33;100.00;98583.47;5024938;28;20513;-85
2023/08/10 09:04:23;;;;;;;4.50;1.80;;;16.60;99.90;;;17.37;100.00;98582.03;5025777;28;20494;-85
2023/08/10 09:06:54;;;;;;;3.20;1.60;;;16.70;99.90;;;17.41;100.00;98575.28;5025369;28;20463;-83
2023/08/10 09:09:26;;;;;;;2.30;1.70;;;16.80;99.90;;;17.48;100.00;98576.03;5025479;28;20466;-85
2023/08/10 09:11:56;;;;;;;3.27;1.87;;;16.80;99.90;;;17.50;100.00;98568.69;5024986;28;20851;-85
2023/08/10 09:14:26;;;;;;;3.43;1.90;;;16.80;99.90;;;17.52;100.00;98564.00;5022056;28;20467;-85
2023/08/10 09:17:00;;;;;;;2.03;1.63;;;16.90;99.90;;;17.58;100.00;98560.50;5023104;28;20462;-85
2023/08/10 09:19:31;;;;;;;8.43;1.67;;;17.00;99.90;;;17.65;100.00;98555.16;5023777;28;20539;-85
2023/08/10 09:22:01;;;;;;;3.07;2.00;;;17.00;99.90;;;17.70;100.00;98562.44;5021328;28;20506;-85
2023/08/10 09:24:33;;;;;;;1.47;1.37;;;17.00;99.90;;;17.74;100.00;98563.59;5021668;28;20493;-85
2023/08/10 09:27:05;;;;;;;2.23;1.37;;;17.10;99.90;;;17.80;100.00;98562.72;5023185;28;20852;-85
2023/08/10 09:29:37;;;;;;;2.10;1.50;;;17.10;99.90;;;17.84;100.00;98555.97;5022227;28;20490;-85
2023/08/10 09:32:08;;;;;;;2.40;1.50;;;17.10;99.90;;;17.85;100.00;98562.84;5022272;28;20969;-85
2023/08/10 09:34:44;;;;;;;4.03;1.57;;;17.20;99.90;;;17.88;100.00;98559.75;5022551;28;20458;-85
2023/08/10 09:37:14;;;;;;;2.23;1.50;;;17.20;99.90;;;17.92;100.00;98560.94;5021939;28;20469;-84
2023/08/10 09:39:44;;;;;;;1.90;1.60;;;17.30;99.90;;;17.94;100.00;98561.56;5023561;28;20526;-85
2023/08/10 09:42:14;;;;;;;2.23;1.50;;;17.30;99.90;;;17.99;99.62;98561.69;5022752;28;20494;-85
2023/08/10 09:44:46;;;;;;;1.53;1.30;;;17.40;99.90;;;18.06;99.52;98554.47;5021881;28;20562;-85
2023/08/10 09:47:18;;;;;;;3.00;1.80;;;17.40;99.90;;;18.11;99.19;98557.28;5024009;28;20463;-85
2023/08/10 09:50:01;;;;;;;1.77;1.40;;;17.40;99.90;;;18.17;92.49;98556.38;5021567;28;20469;-85
2023/08/10 09:52:33;;;;;;;2.33;1.47;;;17.50;99.90;;;18.23;92.76;98552.81;5022652;28;20454;-85
2023/08/10 09:55:05;;;;;;;1.70;1.50;;;17.50;99.90;;;18.29;91.07;98557.22;5022953;28;20466;-85
2023/08/10 09:57:39;;;;;;;2.43;1.40;;;17.60;99.90;;;18.35;90.64;98561.66;5024107;28;20496;-85
2023/08/10 10:00:16;;;;;;;1.83;1.40;;;17.70;99.90;;;18.48;81.50;98550.06;5023480;28;20552;-85
2023/08/10 10:02:48;;;;;;;2.03;1.40;;;17.90;99.80;;;18.52;83.19;98552.06;5021678;28;20529;-85
2023/08/10 10:05:19;;;;;;;2.50;1.50;;;17.90;99.80;;;18.57;84.90;98554.84;5023301;28;20457;-85
2023/08/10 10:07:52;;;;;;;2.93;1.70;;;17.90;99.30;;;18.65;84.85;98544.97;5022282;28;20471;-85
2023/08/10 10:10:21;;;;;;;2.07;1.30;;;18.00;99.90;;;18.72;77.75;98541.19;5023987;28;20473;-85
2023/08/10 10:12:51;;;;;;;4.70;1.70;;;18.10;98.20;;;18.78;80.61;98544.78;5022452;28;20466;-85
2023/08/10 10:15:23;;;;;;;2.70;1.33;;;18.10;99.10;;;18.86;81.59;98541.78;5024459;28;20999;-85
2023/08/10 10:17:55;;;;;;;3.73;1.60;;;18.20;98.90;;;18.89;82.65;98550.09;5022073;28;20472;-85
2023/08/10 10:20:25;;;;;;;2.93;1.70;;;18.20;99.40;;;18.92;83.12;98546.16;5023099;28;20976;-85
2023/08/10 10:22:56;;;;;;;4.17;1.50;;;18.20;99.50;;;18.98;70.24;98529.38;5021938;28;20981;-85
2023/08/10 10:25:26;;;;;;;2.77;1.60;;;18.40;96.80;;;19.04;65.73;98528.44;5020882;28;20490;-86
2023/08/10 10:28:16;;;;;;;2.60;1.80;;;18.40;95.30;;;19.08;70.23;98522.47;5022736;28;20455;-85
2023/08/10 10:31:07;;;;;;;2.80;1.50;;;18.40;96.10;;;19.16;68.51;98521.28;5022531;28;20459;-86